Time;durP1;ratioP1;P1;durP2;ratioP2;P2;SDS_P1;SDS_P2;PMS_P1;PMS_P2;Temp;Humidity;BMP_temperature;BMP_pressure;BME280_temperature;BME280_humidity;BME280_pressure;Samples;Min_cycle;Max_cycle;Signal;HPM_P1;HPM_P2
2023/01/25 00:00:34;;;;;;;17.85;12.95;;;;;;;1.81;63.75;101839.09;10424700;28;20366;-63
2023/01/25 00:05:36;;;;;;;17.80;12.55;;;;;;;1.96;63.54;101833.16;10420228;28;20048;-64
2023/01/25 00:10:37;;;;;;;18.90;13.18;;;;;;;1.91;63.56;101835.72;10413447;28;20072;-64
2023/01/25 00:15:39;;;;;;;18.38;13.25;;;;;;;1.83;63.72;101831.38;10415513;28;20057;-64
2023/01/25 00:20:40;;;;;;;16.23;12.90;;;;;;;1.97;63.47;101829.75;10415812;28;20481;-64
2023/01/25 00:25:42;;;;;;;17.52;12.80;;;;;;;2.05;63.46;101830.66;10414742;28;20312;-64
2023/01/25 00:30:44;;;;;;;19.92;14.63;;;;;;;2.09;63.28;101825.50;10415132;28;20049;-64
2023/01/25 00:35:47;;;;;;;21.42;15.77;;;;;;;2.06;63.06;101824.63;10412552;28;20052;-64
2023/01/25 00:40:49;;;;;;;20.48;16.17;;;;;;;2.05;63.22;101817.75;10414837;28;20049;-64
2023/01/25 00:45:51;;;;;;;20.60;15.80;;;;;;;2.09;63.52;101809.16;10415764;28;20132;-65
2023/01/25 00:50:52;;;;;;;22.17;17.10;;;;;;;2.05;63.47;101807.44;10416030;28;20053;-64
2023/01/25 00:55:54;;;;;;;22.50;16.85;;;;;;;2.12;63.34;101806.59;10418195;28;20729;-64
2023/01/25 01:00:56;;;;;;;24.52;17.40;;;;;;;1.95;63.43;101797.91;10404873;28;20075;-64
2023/01/25 01:06:03;;;;;;;26.90;18.75;;;;;;;1.84;63.79;101797.00;10415768;28;20045;-64
2023/01/25 01:11:09;;;;;;;22.90;15.90;;;;;;;1.73;63.72;101794.34;10416686;28;20416;-64
2023/01/25 01:16:12;;;;;;;19.80;14.32;;;;;;;1.73;63.90;101793.47;10420379;28;20056;-64
2023/01/25 01:21:14;;;;;;;21.92;15.65;;;;;;;1.88;63.92;101793.56;10415003;28;20657;-64
2023/01/25 01:26:19;;;;;;;19.02;15.07;;;;;;;1.98;63.86;101795.34;10420329;28;20041;-64
2023/01/25 01:31:22;;;;;;;20.58;16.73;;;;;;;1.99;63.67;101802.25;10425584;28;20041;-65
2023/01/25 01:36:26;;;;;;;22.77;16.70;;;;;;;2.10;63.66;101795.38;10427023;28;20056;-64
2023/01/25 01:41:28;;;;;;;23.30;17.45;;;;;;;1.99;63.43;101797.06;10428762;28;20048;-64
2023/01/25 01:46:37;;;;;;;20.60;16.17;;;;;;;2.05;63.71;101791.94;10431168;28;20132;-65
2023/01/25 01:51:57;;;;;;;19.65;14.00;;;;;;;1.99;63.85;101795.34;10432916;28;20059;-64
2023/01/25 01:57:10;;;;;;;20.27;15.60;;;;;;;1.99;63.72;101795.34;10431867;28;20053;-65
2023/01/25 02:02:13;;;;;;;25.67;17.95;;;;;;;2.00;63.64;101789.34;10425155;28;20057;-64
2023/01/25 02:07:31;;;;;;;22.98;16.60;;;;;;;1.95;63.94;101790.19;10419192;28;20136;-64
2023/01/25 02:12:36;;;;;;;25.40;19.63;;;;;;;2.01;63.51;101785.88;10426104;28;20072;-65
2023/01/25 02:17:40;;;;;;;23.95;16.67;;;;;;;1.95;63.78;101785.03;10420983;28;20127;-64
2023/01/25 02:23:06;;;;;;;22.05;16.85;;;;;;;2.01;63.86;101785.88;10418256;28;20053;-64
2023/01/25 02:28:17;;;;;;;18.67;13.30;;;;;;;2.00;63.79;101788.47;10408395;28;20147;-64
2023/01/25 02:33:22;;;;;;;18.67;13.20;;;;;;;1.96;64.02;101790.19;10419899;28;20041;-64
2023/01/25 02:38:24;;;;;;;21.55;15.80;;;;;;;2.05;63.96;101786.78;10419704;28;20485;-64
2023/01/25 02:43:31;;;;;;;23.80;16.75;;;;;;;1.94;63.89;101785.84;10419687;28;20068;-64
2023/01/25 02:48:33;;;;;;;21.48;15.93;;;;;;;1.89;63.82;101780.66;10418280;28;20049;-64
2023/01/25 02:53:35;;;;;;;25.40;17.63;;;;;;;1.62;63.85;101775.38;10422468;28;20052;-65
2023/01/25 02:58:36;;;;;;;21.08;15.15;;;;;;;1.45;64.42;101765.81;10420044;28;20445;-64
2023/01/25 03:03:38;;;;;;;20.02;14.32;;;;;;;1.46;64.71;101762.38;10425078;28;20053;-64
2023/01/25 03:08:40;;;;;;;17.10;11.88;;;;;;;1.53;64.79;101756.41;10424005;28;20053;-64
2023/01/25 03:13:42;;;;;;;20.17;14.27;;;;;;;1.58;64.53;101762.47;10422606;28;20504;-64
2023/01/25 03:18:44;;;;;;;18.90;14.18;;;;;;;1.54;64.97;101752.97;10423704;28;20060;-64
2023/01/25 03:23:52;;;;;;;19.98;13.18;;;;;;;1.44;65.03;101756.34;10420954;28;20339;-64
2023/01/25 03:28:54;;;;;;;18.23;13.57;;;;;;;1.07;65.50;101743.22;10422862;28;20048;-65
2023/01/25 03:33:56;;;;;;;18.67;13.85;;;;;;;0.93;65.89;101737.06;10424673;28;20047;-64
2023/01/25 03:38:58;;;;;;;21.05;14.30;;;;;;;1.22;65.82;101743.31;10406373;28;20496;-64
2023/01/25 03:43:59;;;;;;;24.02;15.98;;;;;;;1.38;65.11;101743.44;10432542;28;20110;-64
2023/01/25 03:49:01;;;;;;;23.73;15.73;;;;;;;1.18;65.46;101731.25;10434309;28;20420;-64
2023/01/25 03:54:03;;;;;;;22.20;15.15;;;;;;;1.26;65.79;101742.47;10434419;28;20060;-63
2023/01/25 03:59:05;;;;;;;27.08;18.55;;;;;;;1.21;65.55;101735.56;10433436;28;20084;-64
2023/01/25 04:04:07;;;;;;;26.20;18.00;;;;;;;1.26;65.49;101734.75;10429335;28;20159;-64
2023/01/25 04:09:08;;;;;;;27.90;18.77;;;;;;;1.44;65.27;101723.72;10415979;28;20292;-64
2023/01/25 04:14:10;;;;;;;29.42;19.98;;;;;;;1.43;65.10;101726.25;10413705;28;20049;-64
2023/01/25 04:19:12;;;;;;;26.75;18.15;;;;;;;1.41;65.35;101715.06;10419419;28;20044;-63
2023/01/25 04:24:13;;;;;;;28.85;19.05;;;;;;;1.61;65.13;101716.03;10415149;28;20049;-64
2023/01/25 04:29:15;;;;;;;30.83;19.63;;;;;;;1.61;65.02;101718.63;10415824;28;20044;-64
2023/01/25 04:34:17;;;;;;;29.13;18.95;;;;;;;1.41;65.41;101707.34;10417562;28;20045;-64
2023/01/25 04:39:18;;;;;;;26.42;18.63;;;;;;;1.38;65.29;101708.19;10416195;28;20056;-63
2023/01/25 04:44:20;;;;;;;30.75;19.02;;;;;;;1.19;65.69;101696.94;10416063;28;20060;-63
2023/01/25 04:49:21;;;;;;;33.45;20.55;;;;;;;1.30;65.50;101699.53;10418288;28;20044;-63
2023/01/25 04:54:23;;;;;;;29.38;19.27;;;;;;;1.49;65.04;101692.78;10412946;28;20049;-64
2023/01/25 04:59:25;;;;;;;31.80;19.52;;;;;;;1.35;65.24;101687.56;10419982;28;20484;-64
2023/01/25 05:04:26;;;;;;;30.52;17.75;;;;;;;1.34;65.27;101685.81;10423955;28;20440;-64
2023/01/25 05:09:28;;;;;;;28.33;18.13;;;;;;;1.27;65.79;101690.09;10422948;28;20239;-64
2023/01/25 05:14:29;;;;;;;30.23;19.40;;;;;;;1.29;65.58;101683.25;10431123;28;20094;-64
2023/01/25 05:19:32;;;;;;;28.90;18.35;;;;;;;1.24;65.65;101674.59;10422507;28;20486;-63
2023/01/25 05:24:34;;;;;;;27.73;18.25;;;;;;;1.48;65.50;101675.59;10420934;28;20065;-63
2023/01/25 05:29:39;;;;;;;27.77;18.73;;;;;;;1.53;65.44;101666.16;10420892;28;20311;-63
2023/01/25 05:34:41;;;;;;;30.77;19.40;;;;;;;1.51;65.26;101663.56;10422828;28;20045;-64
2023/01/25 05:39:43;;;;;;;29.25;18.60;;;;;;;1.40;65.25;101670.38;10423120;28;20045;-64
2023/01/25 05:44:44;;;;;;;30.92;18.95;;;;;;;1.00;65.93;101664.16;10431109;28;20057;-64
2023/01/25 05:49:48;;;;;;;23.65;15.20;;;;;;;1.17;66.09;101661.69;10412840;28;20045;-63
2023/01/25 05:54:50;;;;;;;25.08;15.90;;;;;;;1.41;65.27;101656.66;10419304;28;20072;-64
2023/01/25 05:59:51;;;;;;;26.10;16.10;;;;;;;1.31;65.39;101652.31;10430590;28;20152;-64
2023/01/25 06:04:53;;;;;;;26.05;16.08;;;;;;;1.29;65.59;101649.72;10431586;28;20060;-64
2023/01/25 06:09:54;;;;;;;28.98;16.35;;;;;;;1.20;65.41;101654.81;10419048;28;20261;-64
2023/01/25 06:14:56;;;;;;;23.52;15.27;;;;;;;1.30;65.57;101653.16;10419528;28;20295;-64
2023/01/25 06:19:58;;;;;;;27.23;15.85;;;;;;;1.41;65.42;101648.06;10416993;28;20041;-64
2023/01/25 06:24:59;;;;;;;28.73;16.60;;;;;;;1.18;65.38;101653.09;10416069;28;20068;-64
2023/01/25 06:30:01;;;;;;;23.27;14.93;;;;;;;1.20;65.64;101646.22;10420501;28;20072;-64
2023/01/25 06:35:03;;;;;;;23.88;14.82;;;;;;;1.27;65.33;101654.03;10420524;28;20045;-64
2023/01/25 06:40:05;;;;;;;23.58;15.02;;;;;;;1.36;65.45;101642.88;10420640;28;20319;-64
2023/01/25 06:45:07;;;;;;;22.80;15.25;;;;;;;1.41;65.25;101658.38;10418436;28;20158;-64
2023/01/25 06:50:09;;;;;;;28.65;16.27;;;;;;;1.27;65.25;101641.13;10420522;28;20133;-63
2023/01/25 06:55:12;;;;;;;30.77;17.35;;;;;;;1.25;65.15;101654.84;10419029;28;20041;-64
2023/01/25 07:00:15;;;;;;;30.30;16.83;;;;;;;1.26;65.47;101657.44;10418244;28;20060;-63
2023/01/25 07:05:17;;;;;;;29.65;16.50;;;;;;;1.38;65.35;101651.47;10419189;28;20075;-63
2023/01/25 07:10:18;;;;;;;25.80;16.15;;;;;;;1.42;65.18;101647.22;10411526;28;20045;-64
2023/01/25 07:15:20;;;;;;;28.27;17.02;;;;;;;1.26;65.14;101647.13;10420850;28;20049;-64
2023/01/25 07:20:21;;;;;;;31.50;18.77;;;;;;;1.06;65.70;101648.72;10412112;28;20049;-64
2023/01/25 07:25:23;;;;;;;29.52;18.60;;;;;;;1.05;65.87;101646.16;10419419;28;20519;-64
2023/01/25 07:30:25;;;;;;;32.08;18.85;;;;;;;0.98;65.77;101644.38;10416353;28;20056;-64
2023/01/25 07:35:26;;;;;;;30.42;18.70;;;;;;;1.00;65.83;101645.25;10417562;28;20060;-64
2023/01/25 07:40:28;;;;;;;30.63;17.65;;;;;;;1.01;66.02;101639.25;10419213;28;20408;-64
2023/01/25 07:45:30;;;;;;;29.88;18.77;;;;;;;1.00;66.03;101635.81;10427020;28;20053;-64
2023/01/25 07:50:31;;;;;;;37.38;20.92;;;;;;;1.00;65.67;101643.53;10426779;28;20301;-64
2023/01/25 07:55:33;;;;;;;37.40;21.23;;;;;;;1.04;65.96;101636.69;10426216;28;20421;-64
2023/01/25 08:00:35;;;;;;;32.60;18.77;;;;;;;1.14;65.81;101639.31;10425614;28;20064;-64
2023/01/25 08:05:42;;;;;;;32.22;18.60;;;;;;;1.25;65.72;101642.84;10427490;28;20063;-64
2023/01/25 08:10:44;;;;;;;34.55;19.92;;;;;;;1.21;65.66;101642.81;10421430;28;20048;-64
2023/01/25 08:15:53;;;;;;;32.33;18.15;;;;;;;1.11;65.94;101647.06;10419422;28;20045;-64
2023/01/25 08:20:59;;;;;;;34.10;17.75;;;;;;;1.13;65.54;101639.31;10415660;28;20041;-64
2023/01/25 08:26:05;;;;;;;26.48;16.80;;;;;;;1.12;66.18;101648.75;10415785;28;20049;-64
2023/01/25 08:31:13;;;;;;;28.20;16.80;;;;;;;1.31;65.69;101644.56;10414889;28;20496;-64
2023/01/25 08:36:17;;;;;;;26.58;15.32;;;;;;;1.07;65.84;101647.91;10416503;28;20052;-64
2023/01/25 08:41:18;;;;;;;25.85;16.02;;;;;;;1.06;65.91;101647.84;10419654;28;20053;-64
2023/01/25 08:46:22;;;;;;;24.30;15.68;;;;;;;0.96;65.93;101651.22;10416163;28;20490;-63
2023/01/25 08:51:24;;;;;;;30.60;16.42;;;;;;;1.24;65.90;101642.81;10413066;28;20048;-64
2023/01/25 08:56:26;;;;;;;25.17;14.40;;;;;;;1.46;65.46;101633.47;10417091;28;21767;-64
2023/01/25 09:01:27;;;;;;;22.00;13.85;;;;;;;1.50;65.06;101624.91;10412982;28;20049;-64
2023/01/25 09:06:29;;;;;;;21.95;13.80;;;;;;;1.55;65.16;101630.94;10415159;28;20052;-64
2023/01/25 09:11:33;;;;;;;24.25;13.52;;;;;;;1.58;64.46;101616.34;10418203;28;20400;-64
2023/01/25 09:16:35;;;;;;;23.67;15.45;;;;;;;1.58;64.77;101610.31;10418793;28;20037;-64
2023/01/25 09:21:38;;;;;;;28.77;16.35;;;;;;;1.43;64.94;101610.25;10414986;28;20041;-64
2023/01/25 09:26:41;;;;;;;27.30;17.92;;;;;;;1.47;65.09;101604.25;10410319;28;20053;-64
2023/01/25 09:31:51;;;;;;;24.70;14.85;;;;;;;1.50;65.23;101601.69;10421867;28;20049;-64
2023/01/25 09:36:52;;;;;;;31.88;17.33;;;;;;;1.44;64.78;101599.97;10415278;28;20049;-64
2023/01/25 09:42:17;;;;;;;30.30;17.23;;;;;;;1.25;64.98;101609.34;10418937;28;20057;-65
2023/01/25 09:47:49;;;;;;;27.55;16.80;;;;;;;1.13;65.18;101601.53;10428863;28;20096;-64
2023/01/25 09:53:06;;;;;;;28.77;17.25;;;;;;;1.12;65.65;101594.66;10430375;28;20045;-65
2023/01/25 09:58:19;;;;;;;29.52;16.50;;;;;;;1.04;65.62;101586.03;10430088;28;20063;-64
2023/01/25 10:03:31;;;;;;;25.48;15.48;;;;;;;1.13;65.56;101582.66;10430596;28;20485;-64
2023/01/25 10:08:54;;;;;;;24.98;14.60;;;;;;;1.31;65.28;101578.44;10419066;28;20046;-63
2023/01/25 10:13:57;;;;;;;24.17;14.80;;;;;;;1.48;65.07;101567.31;10420410;28;20049;-64
2023/01/25 10:19:25;;;;;;;24.77;14.85;;;;;;;1.34;64.73;101560.38;10416751;28;20461;-63
2023/01/25 10:24:30;;;;;;;22.50;13.27;;;;;;;1.24;65.56;101556.06;10418120;28;20045;-64
2023/01/25 10:29:35;;;;;;;23.48;13.40;;;;;;;1.28;65.02;101556.91;10415015;28;20047;-64
2023/01/25 10:34:44;;;;;;;24.13;13.63;;;;;;;1.26;64.86;101551.78;10417839;28;20417;-64
2023/01/25 10:40:05;;;;;;;21.45;13.50;;;;;;;1.14;65.27;101543.13;10405330;28;20127;-64
2023/01/25 10:45:14;;;;;;;18.95;12.18;;;;;;;1.15;65.08;101530.28;10415503;28;20048;-64
2023/01/25 10:50:42;;;;;;;19.63;12.75;;;;;;;1.28;64.99;101521.72;10415161;28;20045;-64
2023/01/25 10:55:56;;;;;;;21.15;12.38;;;;;;;1.42;64.53;101521.75;10411867;28;20681;-64
2023/01/25 11:00:59;;;;;;;20.60;12.95;;;;;;;1.38;64.21;101522.59;10415213;28;20700;-64
2023/01/25 11:06:01;;;;;;;18.55;11.80;;;;;;;1.42;64.28;101514.00;10415427;28;20456;-64
2023/01/25 11:11:22;;;;;;;17.83;11.55;;;;;;;1.45;64.56;101493.41;10417498;28;20041;-65
2023/01/25 11:16:26;;;;;;;19.33;12.15;;;;;;;1.50;64.32;101485.69;10412722;28;20059;-65
2023/01/25 11:21:31;;;;;;;17.65;11.57;;;;;;;1.46;64.30;101478.81;10418545;28;20810;-64
2023/01/25 11:26:37;;;;;;;19.17;12.52;;;;;;;1.50;64.28;101480.53;10413222;28;20462;-64
2023/01/25 11:31:44;;;;;;;20.48;12.80;;;;;;;1.50;63.87;101476.25;10422000;28;20072;-64
2023/01/25 11:37:11;;;;;;;19.17;12.13;;;;;;;1.63;63.83;101474.50;10409660;28;20044;-64
2023/01/25 11:42:31;;;;;;;20.13;12.20;;;;;;;1.63;63.55;101471.94;10415652;28;20048;-64
2023/01/25 11:47:54;;;;;;;17.58;11.07;;;;;;;1.58;63.90;101460.78;10416017;28;20170;-64
2023/01/25 11:53:29;;;;;;;19.77;11.07;;;;;;;1.45;63.39;101441.84;10414036;28;20044;-63
2023/01/25 11:58:40;;;;;;;17.42;10.88;;;;;;;1.42;63.85;101431.50;10413106;28;20037;-63
2023/01/25 12:04:00;;;;;;;17.10;11.38;;;;;;;1.47;63.96;101416.94;10414749;28;20432;-64
2023/01/25 12:09:13;;;;;;;19.20;12.60;;;;;;;1.54;63.50;101410.06;10413532;28;20497;-64
2023/01/25 12:14:42;;;;;;;17.67;11.52;;;;;;;1.47;63.77;101398.88;10407168;28;20044;-64
2023/01/25 12:20:25;;;;;;;17.20;11.95;;;;;;;1.48;63.98;101389.44;10411072;28;20398;-64
2023/01/25 12:25:32;;;;;;;20.60;13.32;;;;;;;1.67;63.35;101375.66;10415397;28;20056;-64
2023/01/25 12:30:50;;;;;;;20.17;13.00;;;;;;;1.56;63.32;101361.94;10412357;28;20053;-63
2023/01/25 12:36:10;;;;;;;20.98;13.05;;;;;;;1.04;64.09;101350.72;10415933;28;20071;-63
2023/01/25 12:41:23;;;;;;;20.27;13.50;;;;;;;1.18;64.17;101351.59;10419086;28;20045;-63
2023/01/25 12:46:31;;;;;;;19.17;12.68;;;;;;;1.49;64.10;101339.59;10411907;28;20061;-64
2023/01/25 12:51:38;;;;;;;21.55;13.18;;;;;;;1.69;63.45;101325.81;10414706;28;20045;-64
2023/01/25 12:56:51;;;;;;;21.20;14.10;;;;;;;1.69;63.11;101312.06;10404776;28;20045;-64
2023/01/25 13:02:03;;;;;;;21.45;13.98;;;;;;;1.66;63.60;101306.91;10414512;28;20136;-64
2023/01/25 13:07:12;;;;;;;23.65;14.23;;;;;;;1.53;63.68;101298.34;10404823;28;20045;-64
2023/01/25 13:12:14;;;;;;;22.17;13.70;;;;;;;1.61;63.73;101278.56;10420343;28;20548;-64
2023/01/25 13:17:37;;;;;;;22.67;15.13;;;;;;;1.50;63.76;101277.75;10419129;28;20049;-64
2023/01/25 13:22:44;;;;;;;24.90;14.65;;;;;;;1.33;63.91;101275.19;10422405;28;20469;-64
2023/01/25 13:27:47;;;;;;;25.30;16.08;;;;;;;1.38;64.09;101276.00;10420929;28;20491;-64
2023/01/25 13:32:54;;;;;;;23.30;14.90;;;;;;;1.49;64.06;101257.97;10426812;28;20045;-64
2023/01/25 13:38:28;;;;;;;24.23;15.93;;;;;;;1.44;63.69;101259.69;10429867;28;20100;-64
2023/01/25 13:43:30;;;;;;;23.65;14.70;;;;;;;1.53;63.57;101248.50;10430065;28;20084;-64
2023/01/25 13:48:34;;;;;;;23.90;14.98;;;;;;;1.59;63.75;101226.13;10429305;28;20437;-64
2023/01/25 13:53:39;;;;;;;24.25;14.85;;;;;;;1.48;63.92;101212.44;10431269;28;20519;-65
2023/01/25 13:58:49;;;;;;;25.10;15.85;;;;;;;1.43;63.94;101211.56;10429265;28;20056;-65
2023/01/25 14:03:58;;;;;;;23.85;16.15;;;;;;;1.47;63.69;101213.28;10427997;28;20048;-64
2023/01/25 14:09:10;;;;;;;24.23;15.68;;;;;;;1.41;63.88;101204.69;10427103;28;20433;-64
2023/01/25 14:14:33;;;;;;;26.27;15.52;;;;;;;1.38;63.63;101188.38;10430947;28;20072;-64
2023/01/25 14:19:38;;;;;;;26.15;15.45;;;;;;;1.31;63.79;101186.69;10427800;28;20048;-64
2023/01/25 14:24:40;;;;;;;24.80;15.25;;;;;;;1.31;63.62;101176.38;10427171;28;20053;-64
2023/01/25 14:29:47;;;;;;;25.67;16.65;;;;;;;1.32;63.86;101169.50;10427402;28;20179;-64
2023/01/25 14:34:49;;;;;;;29.60;18.17;;;;;;;1.19;63.99;101166.09;10429848;28;20588;-64
2023/01/25 14:39:51;;;;;;;31.75;17.42;;;;;;;1.16;64.05;101160.94;10427372;28;20041;-64
2023/01/25 14:44:52;;;;;;;29.55;17.55;;;;;;;1.26;64.31;101154.91;10423761;28;20052;-64
2023/01/25 14:49:54;;;;;;;27.75;17.45;;;;;;;1.25;64.17;101153.22;10423030;28;20341;-64
2023/01/25 14:54:58;;;;;;;26.67;15.75;;;;;;;1.36;64.24;101141.13;10424366;28;20136;-64
2023/01/25 15:00:03;;;;;;;26.77;17.10;;;;;;;1.23;64.36;101147.19;10420894;28;20582;-64
2023/01/25 15:05:14;;;;;;;28.25;17.35;;;;;;;1.18;64.72;101145.47;10419541;28;20413;-64
2023/01/25 15:10:22;;;;;;;30.40;18.13;;;;;;;1.10;64.80;101135.19;10415746;28;20618;-64
2023/01/25 15:15:26;;;;;;;28.90;17.10;;;;;;;1.18;64.68;101127.44;10413197;28;20468;-64
2023/01/25 15:20:40;;;;;;;28.75;17.52;;;;;;;1.21;64.54;101133.47;10411672;28;20523;-64
2023/01/25 15:25:52;;;;;;;26.20;16.85;;;;;;;1.10;65.07;101127.47;10420122;28;20045;-64
2023/01/25 15:30:56;;;;;;;34.63;17.98;;;;;;;1.04;64.65;101122.34;10419424;28;20041;-64
2023/01/25 15:35:58;;;;;;;24.80;16.05;;;;;;;1.00;64.98;101115.47;10421534;28;20413;-64
2023/01/25 15:41:01;;;;;;;24.52;15.85;;;;;;;1.13;64.87;101100.84;10419338;28;20545;-64
2023/01/25 15:46:04;;;;;;;23.65;14.93;;;;;;;1.13;64.88;101106.88;10404113;28;20911;-64
2023/01/25 15:51:07;;;;;;;27.52;16.73;;;;;;;1.18;64.96;101107.69;10422136;28;20049;-64
2023/01/25 15:56:20;;;;;;;23.45;14.65;;;;;;;1.00;65.04;101106.88;10420694;28;20053;-63
2023/01/25 16:01:25;;;;;;;23.55;14.90;;;;;;;0.85;65.08;101099.22;10415395;28;20175;-64
2023/01/25 16:06:36;;;;;;;27.02;15.07;;;;;;;0.75;65.24;101095.75;10420029;28;20160;-65
2023/01/25 16:11:38;;;;;;;27.17;15.03;;;;;;;0.77;64.94;101091.47;10416673;28;20485;-65
2023/01/25 16:16:49;;;;;;;24.52;14.40;;;;;;;0.85;65.21;101094.06;10416774;28;20045;-65
2023/01/25 16:21:51;;;;;;;22.92;14.20;;;;;;;0.74;65.37;101095.78;10410413;28;20571;-65
2023/01/25 16:26:55;;;;;;;24.20;13.90;;;;;;;0.73;65.41;101089.75;10409158;28;20051;-65
2023/01/25 16:31:56;;;;;;;23.60;14.25;;;;;;;0.75;65.33;101092.34;10415187;28;20067;-65
2023/01/25 16:36:59;;;;;;;21.70;13.23;;;;;;;0.67;65.28;101092.34;10415255;28;20056;-65
2023/01/25 16:42:00;;;;;;;21.88;12.70;;;;;;;0.47;65.86;101087.22;10411534;28;20053;-65
2023/01/25 16:47:03;;;;;;;21.10;12.57;;;;;;;0.58;65.40;101087.22;10406694;28;20049;-65
2023/01/25 16:52:05;;;;;;;22.45;13.52;;;;;;;0.63;65.48;101088.06;10423180;28;20107;-65
2023/01/25 16:57:08;;;;;;;21.02;12.10;;;;;;;0.70;65.46;101086.34;10425583;28;20088;-65
2023/01/25 17:02:20;;;;;;;24.02;13.52;;;;;;;0.76;65.45;101081.19;10429710;28;20064;-65
2023/01/25 17:07:22;;;;;;;21.85;12.85;;;;;;;0.75;65.44;101077.75;10428517;28;20088;-65
2023/01/25 17:12:24;;;;;;;21.98;12.93;;;;;;;0.73;65.71;101076.06;10426752;28;20520;-65
2023/01/25 17:17:28;;;;;;;20.60;11.73;;;;;;;0.66;65.66;101072.63;10426377;28;20428;-65
2023/01/25 17:22:36;;;;;;;21.15;12.05;;;;;;;0.70;65.53;101076.03;10428733;28;20045;-65
2023/01/25 17:27:37;;;;;;;20.70;12.15;;;;;;;0.66;65.59;101080.34;10424881;28;20033;-65
2023/01/25 17:32:39;;;;;;;19.90;12.10;;;;;;;0.66;65.83;101074.34;10428475;28;20137;-65
2023/01/25 17:37:41;;;;;;;20.50;11.75;;;;;;;0.74;65.73;101058.03;10425237;28;20055;-66
2023/01/25 17:42:43;;;;;;;19.40;11.68;;;;;;;0.77;65.60;101068.28;10424849;28;20084;-65
2023/01/25 17:47:44;;;;;;;23.02;13.23;;;;;;;0.82;65.70;101053.72;10422395;28;20045;-65
2023/01/25 17:52:47;;;;;;;20.33;12.05;;;;;;;0.85;65.66;101048.53;10430226;28;20072;-64
2023/01/25 17:57:50;;;;;;;27.73;15.07;;;;;;;0.88;65.56;101035.66;10427186;28;20056;-65
2023/01/25 18:02:52;;;;;;;21.70;12.63;;;;;;;0.93;65.64;101027.94;10425031;28;20057;-65
2023/01/25 18:07:54;;;;;;;19.73;12.75;;;;;;;0.86;65.71;101009.06;10416846;28;20049;-65
2023/01/25 18:12:56;;;;;;;18.40;11.02;;;;;;;0.84;65.51;101012.50;10420424;28;20049;-65
2023/01/25 18:18:06;;;;;;;23.77;13.52;;;;;;;0.81;65.57;101008.22;10425997;28;20053;-64
2023/01/25 18:23:07;;;;;;;23.13;13.73;;;;;;;0.81;65.58;101008.22;10429579;28;20044;-64
2023/01/25 18:28:12;;;;;;;25.50;17.15;;;;;;;0.83;65.57;101006.47;10426928;28;20045;-63
2023/01/25 18:33:14;;;;;;;16.23;11.10;;;;;;;0.88;66.17;101001.31;10425917;28;20053;-64
2023/01/25 18:38:16;;;;;;;19.80;11.40;;;;;;;0.98;65.76;100996.13;10422429;28;20048;-64
2023/01/25 18:43:19;;;;;;;17.70;10.75;;;;;;;1.02;65.31;100982.38;10427450;28;20049;-63
2023/01/25 18:48:29;;;;;;;18.08;11.23;;;;;;;0.92;65.54;100978.13;10421126;28;20053;-64
2023/01/25 18:53:32;;;;;;;16.70;10.13;;;;;;;0.77;65.58;100974.78;10415580;28;20037;-64
2023/01/25 18:58:35;;;;;;;14.27;9.30;;;;;;;0.75;65.69;100971.34;10419389;28;20172;-64
2023/01/25 19:03:37;;;;;;;15.25;10.30;;;;;;;0.68;65.80;100959.34;10419886;28;21284;-64
2023/01/25 19:08:45;;;;;;;15.82;9.55;;;;;;;0.70;66.09;100950.75;10415683;28;20300;-64
2023/01/25 19:13:48;;;;;;;53.20;30.73;;;;;;;0.69;65.77;100945.63;10411517;28;20045;-64
2023/01/25 19:18:52;;;;;;;17.35;10.15;;;;;;;0.72;65.61;100940.44;10414976;28;20671;-65
2023/01/25 19:23:55;;;;;;;19.42;13.00;;;;;;;0.65;66.06;100943.94;10415420;28;20049;-65
2023/01/25 19:28:58;;;;;;;16.85;9.77;;;;;;;0.58;65.83;100937.94;10415109;28;20045;-65
2023/01/25 19:34:03;;;;;;;15.52;8.88;;;;;;;0.47;66.03;100927.66;10415356;28;20041;-65
2023/01/25 19:39:08;;;;;;;16.20;9.18;;;;;;;0.32;66.03;100934.59;10412983;28;20536;-65
2023/01/25 19:44:12;;;;;;;13.80;8.70;;;;;;;0.44;66.35;100929.41;10415608;28;20068;-65
2023/01/25 19:49:14;;;;;;;17.38;9.50;;;;;;;0.56;66.26;100926.78;10414673;28;20819;-65
2023/01/25 19:54:16;;;;;;;16.17;10.13;;;;;;;0.53;65.95;100924.22;10415469;28;20048;-65
2023/01/25 19:59:20;;;;;;;19.90;10.80;;;;;;;0.43;66.32;100928.53;10406870;28;20057;-65
2023/01/25 20:04:22;;;;;;;16.55;10.55;;;;;;;0.50;66.18;100916.50;10416847;28;20055;-65
2023/01/25 20:09:26;;;;;;;17.65;10.60;;;;;;;0.48;66.28;100929.38;10412088;28;20057;-65
2023/01/25 20:14:28;;;;;;;20.73;11.90;;;;;;;0.47;66.14;100914.81;10413167;28;20049;-65
2023/01/25 20:19:31;;;;;;;22.70;11.98;;;;;;;0.52;66.04;100914.78;10412344;28;20041;-65
2023/01/25 20:24:33;;;;;;;18.25;10.90;;;;;;;0.49;66.42;100910.50;10416742;28;20404;-65
2023/01/25 20:29:35;;;;;;;13.68;8.38;;;;;;;0.30;66.56;100908.00;10419720;28;20049;-65
2023/01/25 20:34:37;;;;;;;15.85;10.82;;;;;;;0.43;66.23;100901.94;10420778;28;20056;-65
2023/01/25 20:39:39;;;;;;;16.75;10.77;;;;;;;0.43;66.29;100895.09;10416538;28;20045;-65
2023/01/25 20:44:40;;;;;;;12.32;8.07;;;;;;;0.51;65.99;100884.75;10415967;28;20049;-65
2023/01/25 20:49:42;;;;;;;13.65;8.60;;;;;;;0.70;65.70;100886.41;10421700;28;20243;-65
2023/01/25 20:54:44;;;;;;;15.80;9.50;;;;;;;0.77;65.51;100871.78;10416513;28;20045;-65
2023/01/25 20:59:45;;;;;;;17.55;10.77;;;;;;;0.63;65.73;100866.69;10414191;28;20497;-65
2023/01/25 21:04:47;;;;;;;16.10;10.13;;;;;;;0.54;65.81;100854.72;10412109;28;20409;-65
2023/01/25 21:09:48;;;;;;;19.27;11.77;;;;;;;0.68;65.92;100851.22;10408532;28;20056;-64
2023/01/25 21:14:50;;;;;;;13.68;8.95;;;;;;;0.60;65.39;100842.69;10423584;28;20056;-65
2023/01/25 21:19:52;;;;;;;15.52;10.18;;;;;;;0.66;65.59;100828.06;10422739;28;20378;-65
2023/01/25 21:24:53;;;;;;;19.52;12.70;;;;;;;0.67;65.55;100827.19;10424791;28;20315;-65
2023/01/25 21:29:55;;;;;;;18.80;12.43;;;;;;;0.75;65.40;100820.28;10425947;28;20056;-64
2023/01/25 21:34:57;;;;;;;16.00;10.35;;;;;;;0.73;65.29;100805.72;10424051;28;20049;-64
2023/01/25 21:39:59;;;;;;;15.75;10.40;;;;;;;0.68;65.14;100799.75;10427152;28;20598;-65
2023/01/25 21:55:42;;;;;;;14.23;9.27;;;;;;;0.56;65.63;100800.69;10428113;28;20049;-64
2023/01/25 22:00:44;;;;;;;14.98;9.20;;;;;;;0.51;65.27;100803.28;10418459;28;20053;-64
2023/01/25 22:05:53;;;;;;;14.82;8.65;;;;;;;0.39;65.41;100797.31;10419311;28;20055;-64
2023/01/25 22:11:06;;;;;;;12.95;8.00;;;;;;;0.19;65.61;100809.41;10421509;28;20040;-64
2023/01/25 22:16:09;;;;;;;12.63;8.40;;;;;;;0.30;65.66;100800.78;10418033;28;20040;-64
2023/01/25 22:21:19;;;;;;;14.27;8.63;;;;;;;0.28;65.02;100787.06;10424322;28;20124;-63
2023/01/25 22:26:23;;;;;;;15.55;8.65;;;;;;;0.17;65.37;100785.41;10419512;28;20064;-63
2023/01/25 22:31:28;;;;;;;15.43;8.85;;;;;;;0.01;65.55;100782.06;10420213;28;20045;-63
2023/01/25 22:36:30;;;;;;;14.15;8.95;;;;;;;0.02;65.59;100775.19;10427362;28;20053;-64
2023/01/25 22:41:34;;;;;;;18.15;10.30;;;;;;;0.06;65.43;100761.44;10419044;28;20048;-64
2023/01/25 22:46:36;;;;;;;16.55;9.48;;;;;;;-0.20;65.54;100770.97;10417264;28;20083;-63
2023/01/25 22:51:38;;;;;;;16.17;9.70;;;;;;;-0.23;65.58;100760.72;10417661;28;20053;-64
2023/01/25 22:56:39;;;;;;;16.92;10.30;;;;;;;-0.12;65.67;100751.25;10418031;28;20049;-64
2023/01/25 23:01:41;;;;;;;17.55;10.20;;;;;;;0.12;65.44;100728.84;10417323;28;20509;-65
2023/01/25 23:06:43;;;;;;;13.95;8.70;;;;;;;0.16;65.43;100719.44;10419570;28;20608;-64
2023/01/25 23:11:44;;;;;;;15.75;9.68;;;;;;;0.20;65.31;100710.81;10419977;28;20041;-64
2023/01/25 23:16:46;;;;;;;14.63;9.45;;;;;;;0.27;65.32;100703.06;10421419;28;20623;-65